• Join FlightAware (Why Join?)
  • Login
  • US Flag 
10:38PM EDT


 

Airport Tracker/Info


-or-


 

Live Flight TrackerFlight Track Log ✈ AWE1466 ✈ 12-May-2013 ✈ KATL - KPHL

Flight Track Log - Related Links

Times and Time Zones

All times are in EDT time to prevent confusion due to time zone crossing. See the AWE1466 flight status page for this flight to view local times or setup timezone preferences in your user account.

Time Position Orientation Groundspeed Altitude Reporting Facility
EDT Latitude Longitude Course Direction KTS MPH feet Rate Location/Type
02:35PM 33.6333 -84.4833 53° Northeast 172 198 2,700  Level Atlanta TRACON
02:36PM 33.7241 -84.0210 54° Northeast  Level FlightAware Approximate
02:36PM 33.6000 -84.5500 239° Southwest 231 266 4,800  Level Atlanta TRACON
02:37PM 33.7910 -83.9097 54° Northeast  Level FlightAware Approximate
02:37PM 33.5333 -84.5833 203° Southwest 293 337 8,000  Level Atlanta TRACON
02:38PM 33.8578 -83.7982 54° Northeast  Level FlightAware Approximate
02:38PM 33.4553 -84.4844 133° Southeast 337 388 11,800  Level Atlanta Center
02:39PM 33.9314 -83.6932 53° Northeast  Level FlightAware Approximate
02:39PM 33.4536 -84.3475 91° East 344 396 14,100  Level Atlanta Center
02:40PM 34.0000 -83.5831 53° Northeast  Level FlightAware Approximate
02:40PM 33.5081 -84.2356 60° Northeast 343 395 16,200  Level Atlanta Center
02:41PM 33.6106 -84.1761 26° Northeast 349 402 18,300 2,100 Climbing Atlanta Center
02:42PM 33.7128 -84.1089 29° Northeast 384 442 20,400 2,040 Climbing Atlanta Center
02:43PM 33.7881 -83.9964 51° Northeast 418 481 22,400 1,440 Climbing Atlanta Center
02:44PM 33.8567 -83.8611 59° Northeast 449 517 23,300 1,260 Climbing Atlanta Center
02:45PM 33.9275 -83.7233 58° Northeast 474 545 25,000 1,620 Climbing Atlanta Center
02:46PM 34.0083 -83.5928 53° Northeast 479 551 26,600 1,380 Climbing Atlanta Center
02:47PM 34.0914 -83.4594 53° Northeast 495 570 27,800 1,140 Climbing Atlanta Center
02:48PM 34.1761 -83.3231 53° Northeast 495 570 28,900 1,200 Climbing Atlanta Center
02:49PM 34.2631 -83.1867 52° Northeast 514 592 30,300 1,200 Climbing Atlanta Center
02:50PM 34.3497 -83.0500 52° Northeast 514 592 31,400 1,080 Climbing Atlanta Center
02:51PM 34.4381 -82.9078 53° Northeast 514 592 32,500 960 Climbing Atlanta Center
02:52PM 34.5264 -82.7656 53° Northeast 523 602 33,400 900 Climbing Atlanta Center
02:53PM 34.6022 -82.6381 54° Northeast 523 602 34,400 1,020 Climbing Atlanta Center
02:54PM 34.6883 -82.4978 53° Northeast 523 602 35,500 900 Climbing Atlanta Center
02:55PM 34.7761 -82.3547 53° Northeast 523 602 36,200 720 Climbing Atlanta Center
02:56PM 34.8639 -82.2136 53° Northeast 523 602 37,000 360 Climbing Atlanta Center
02:57PM 34.9614 -82.0517 54° Northeast 529 609 37,000  Level Atlanta Center
02:58PM 35.0467 -81.9000 55° Northeast 540 621 37,000  Level Atlanta Center
02:59PM 35.1336 -81.7456 55° Northeast 551 634 37,000  Level Atlanta Center
03:00PM 35.2058 -81.6036 58° Northeast 551 634 37,000  Level Atlanta Center
03:01PM 35.2903 -81.4458 57° Northeast 551 634 37,000  Level Atlanta Center
03:02PM 35.3722 -81.2856 58° Northeast 556 640 37,000  Level Atlanta Center
03:03PM 35.4522 -81.1272 58° Northeast 556 640 37,000  Level Atlanta Center
03:04PM 35.5439 -80.9556 57° Northeast 556 640 37,000  Level Atlanta Center
03:05PM 35.6175 -80.8147 57° Northeast 551 634 37,000  Level Atlanta Center
03:06PM 35.6947 -80.6608 58° Northeast 543 625 37,000  Level Atlanta Center
03:07PM 35.7739 -80.5067 58° Northeast 538 619 37,000  Level Atlanta Center
03:08PM 35.8528 -80.3547 57° Northeast 532 612 37,000  Level Atlanta Center
03:09PM 35.9294 -80.1997 59° Northeast 532 612 37,000  Level Atlanta Center
03:11PM 36.0753 -79.9325 56° Northeast 546 628 37,000  Level Washington Center
03:12PM 36.1578 -79.7828 56° Northeast 539 620 37,000  Level Washington Center
03:13PM 36.2314 -79.6478 56° Northeast 533 613 37,000  Level Washington Center
03:14PM 36.3244 -79.4822 55° Northeast 528 608 37,000  Level Washington Center
03:15PM 36.4064 -79.3342 55° Northeast 523 602 37,000  Level Washington Center
03:16PM 36.4903 -79.1858 55° Northeast 523 602 37,000  Level Washington Center
03:17PM 36.5781 -79.0397 53° Northeast 523 602 37,000  Level Washington Center
03:18PM 36.6594 -78.8881 56° Northeast 523 602 37,000  Level Washington Center
03:19PM 36.7319 -78.7486 57° Northeast 530 610 37,000  Level Washington Center
03:20PM 36.8150 -78.6014 55° Northeast 525 604 37,000  Level Washington Center
03:21PM 36.9292 -78.4603 45° Northeast 520 598 37,000  Level Washington Center
03:22PM 37.0342 -78.3472 41° Northeast 509 586 37,000  Level Washington Center
03:23PM 37.1450 -78.2339 39° Northeast 504 580 37,000 -720 Level Washington Center
03:24PM 37.2519 -78.1203 40° Northeast 504 580 35,600 -1,680 Descending Washington Center
03:25PM 37.3606 -78.0061 40° Northeast 504 580 33,600 -2,040 Descending Washington Center
03:26PM 37.4733 -77.8894 39° Northeast 504 580 31,600 -1,320 Descending Washington Center
03:27PM 37.5883 -77.7750 38° Northeast 509 586 31,000 -300 Descending Washington Center
03:28PM 37.7111 -77.6656 35° Northeast 526 605 31,000  Level Washington Center
03:29PM 37.8319 -77.5531 36° Northeast 537 618 31,000  Level Washington Center
03:30PM 37.9525 -77.4431 36° Northeast 537 618 31,000  Level Washington Center
03:31PM 38.0603 -77.3481 35° Northeast 529 609 31,000 -600 Level Washington Center
03:32PM 38.1828 -77.2347 36° Northeast 529 609 29,900 -1,440 Descending Washington Center
03:33PM 38.2906 -77.1314 37° Northeast 529 609 28,200 -1,980 Descending Washington Center
03:34PM 38.4169 -77.0172 35° Northeast 524 603 26,000 -2,100 Descending Washington Center
03:35PM 38.5308 -76.9108 36° Northeast 518 596 24,000 -1,020 Descending Washington Center
03:36PM 38.6403 -76.8089 36° Northeast 500 575 24,000 -360 Level Washington Center
03:37PM 38.7211 -76.6614 55° Northeast 488 562 23,300 -1,200 Descending Washington Center
03:38PM 38.7558 -76.4914 75° East 476 548 21,700 3,780 Descending Washington Center
03:39PM 38.7967 -76.3028 74° East 482 555 31,000 -2,700 Climbing Washington Center
03:40PM 38.8286 -76.1433 76° East 467 537 16,300 -7,980 Descending Washington Center
03:41PM 38.8625 -75.9942 74° East 459 528 15,000 -720 Descending Washington Center
03:42PM 38.9025 -75.8478 71° East 444 511 15,000 -1,020 Level Washington Center
03:45PM 39.1500 -75.6667 30° Northeast 375 432 11,600 -1,440 Descending Philadelphia TRACON
03:46PM 39.2667 -75.6500 North 335 386 10,000 -900 Descending Philadelphia TRACON
03:46PM 39.3167 -75.6333 14° North 300 345 10,000 -540 Level Philadelphia TRACON
03:48PM 39.3833 -75.5333 49° Northeast 315 362 9,100 -900 Descending Philadelphia TRACON
03:49PM 39.4333 -75.4500 52° Northeast 309 356 8,100 -1,020 Descending Philadelphia TRACON
03:49PM 39.4833 -75.3833 46° Northeast 287 330 7,200 -600 Descending Philadelphia TRACON
03:51PM 39.5333 -75.3000 52° Northeast 285 328 6,900 -600 Descending Philadelphia TRACON
03:52PM 39.5833 -75.2167 52° Northeast 282 325 6,000 -480 Descending Philadelphia TRACON
03:53PM 39.6500 -75.1333 44° Northeast 284 327 6,000  Level Philadelphia TRACON
03:53PM 39.7000 -75.0833 38° Northeast 275 316 6,000 -240 Level Philadelphia TRACON
03:54PM 39.7500 -75.0167 46° Northeast 259 298 5,600 -780 Descending Philadelphia TRACON
03:55PM 39.8000 -74.9667 38° Northeast 232 267 4,500 -900 Descending Philadelphia TRACON
03:56PM 39.8667 -74.9833 349° North 186 214 3,900 -960 Descending Philadelphia TRACON
03:57PM 39.9000 -75.0167 323° Northwest 155 178 2,600 -900 Descending Philadelphia TRACON
03:58PM 39.9000 -75.0667 270° West 160 184 2,100 -480 Descending Philadelphia TRACON
04:00PM 39.9000 -75.1167 270° West 136 157 1,700 -540 Descending Philadelphia TRACON
04:01PM 39.8833 -75.1667 247° West 120 138 1,000 -660 Descending Philadelphia TRACON
04:02PM 39.8833 -75.2000 270° West 129 148 400 -600 Descending Philadelphia TRACON
04:04PM 39.8667 -75.2333 330° Northwest  Level FlightAware Approximate